Time;durP1;ratioP1;P1;durP2;ratioP2;P2;SDS_P1;SDS_P2;PMS_P1;PMS_P2;Temp;Humidity;BMP_temperature;BMP_pressure;BME280_temperature;BME280_humidity;BME280_pressure;Samples;Min_cycle;Max_cycle;Signal;HPM_P1;HPM_P2
2023/09/18 00:14:49;;;;;;;13.73;11.55;;;20.50;99.90;;;;;;5012758;28;20107;-53
2023/09/18 04:05:50;;;;;;;18.27;16.27;;;19.00;99.90;;;;;;4995831;28;20478;-52
2023/09/18 07:53:46;;;;;;;12.23;10.55;;;;;;;;;;5032843;28;20561;-53
2023/09/18 08:26:14;;;;;;;11.95;10.38;;;28.50;99.90;;;;;;5028735;28;20105;-55
2023/09/18 08:28:43;;;;;;;12.13;10.82;;;;;;;;;;5027753;28;20053;-56
2023/09/18 08:31:10;;;;;;;12.23;11.10;;;;;;;;;;5024721;28;20041;-55
2023/09/18 08:33:36;;;;;;;12.15;10.85;;;;;;;;;;5019704;28;20044;-55
2023/09/18 08:36:02;;;;;;;14.32;11.70;;;29.20;99.90;;;;;;5007417;28;20100;-55
2023/09/18 08:38:28;;;;;;;13.60;10.00;;;;;;;;;;5027085;28;20034;-55
2023/09/18 08:40:55;;;;;;;13.02;11.73;;;29.80;99.90;;;;;;4995117;28;20127;-55
2023/09/18 08:43:22;;;;;;;15.13;12.02;;;30.10;99.90;;;;;;5028369;28;20666;-55
2023/09/18 08:45:52;;;;;;;12.65;9.77;;;;;;;;;;4984576;28;20049;-55
2023/09/18 08:48:19;;;;;;;13.65;10.25;;;30.10;99.90;;;;;;5024133;28;20064;-55
2023/09/18 08:50:47;;;;;;;13.13;10.05;;;29.50;99.90;;;;;;5022493;28;20502;-56
2023/09/18 08:53:12;;;;;;;10.95;9.50;;;30.40;99.90;;;;;;5019363;28;20044;-55
2023/09/18 08:55:38;;;;;;;10.25;9.23;;;30.10;99.90;;;;;;5023028;28;20477;-54
2023/09/18 08:58:06;;;;;;;13.25;10.05;;;30.90;99.90;;;;;;5024984;28;20033;-55
2023/09/18 09:00:32;;;;;;;10.43;9.30;;;;;;;;;;5019503;28;20091;-54
2023/09/18 09:02:59;;;;;;;12.13;9.68;;;30.90;99.90;;;;;;5014926;28;20038;-52
2023/09/18 09:05:24;;;;;;;10.48;8.70;;;31.20;99.90;;;;;;5031675;28;20064;-54
2023/09/18 09:07:51;;;;;;;10.23;8.60;;;;;;;;;;5004663;28;20045;-54
2023/09/18 09:10:18;;;;;;;16.30;14.00;;;;;;;;;;5008706;28;20424;-54
2023/09/18 09:12:55;;;;;;;13.10;11.15;;;31.30;99.90;;;;;;5028838;28;20038;-53
2023/09/18 09:15:22;;;;;;;16.55;11.10;;;;;;;;;;5025072;28;20068;-53
2023/09/18 09:17:49;;;;;;;12.93;9.00;;;;;;;;;;5026876;28;20021;-53
2023/09/18 09:20:17;;;;;;;10.43;8.98;;;32.80;99.90;;;;;;5020452;28;20038;-52
2023/09/18 09:22:43;;;;;;;10.18;9.02;;;32.50;99.90;;;;;;4975491;28;20057;-53
2023/09/18 09:25:21;;;;;;;11.40;9.18;;;32.60;99.90;;;;;;5000622;28;20079;-53
2023/09/18 09:27:47;;;;;;;11.02;8.98;;;;;;;;;;5044920;28;20021;-52
2023/09/18 09:30:25;;;;;;;9.90;8.75;;;33.50;99.80;;;;;;5049094;28;20029;-53
2023/09/18 09:32:52;;;;;;;11.35;8.88;;;33.60;99.90;;;;;;4998102;28;20042;-55
2023/09/18 09:35:22;;;;;;;10.23;8.45;;;;;;;;;;5051011;28;20047;-54
2023/09/18 09:37:51;;;;;;;10.45;9.43;;;33.40;99.90;;;;;;5044772;28;20068;-53
2023/09/18 09:40:42;;;;;;;14.65;8.93;;;32.50;99.90;;;;;;5007586;28;20040;-52
2023/09/18 09:43:15;;;;;;;9.20;8.30;;;32.50;99.90;;;;;;5002019;28;20371;-51
2023/09/18 09:45:42;;;;;;;11.63;9.30;;;32.50;99.40;;;;;;5004985;28;20045;-52
2023/09/18 09:48:08;;;;;;;10.18;8.05;;;32.80;99.90;;;;;;5012560;28;20030;-52
2023/09/18 09:50:46;;;;;;;10.43;8.70;;;32.70;99.30;;;;;;5002639;28;20046;-51
2023/09/18 09:53:13;;;;;;;7.95;6.70;;;;;;;;;;5009560;28;20034;-51
2023/09/18 09:55:40;;;;;;;9.60;8.68;;;33.90;99.90;;;;;;5007707;28;20081;-51
2023/09/18 09:58:08;;;;;;;9.50;7.30;;;34.00;99.90;;;;;;5005605;28;20438;-51
2023/09/18 10:00:49;;;;;;;10.38;7.80;;;32.90;98.40;;;;;;5004510;28;20135;-51
2023/09/18 10:03:17;;;;;;;9.47;8.20;;;33.10;98.10;;;;;;5006927;28;20112;-51
2023/09/18 10:05:44;;;;;;;11.98;8.35;;;;;;;;;;5003490;28;20069;-52
2023/09/18 10:08:22;;;;;;;8.50;7.70;;;34.50;99.90;;;;;;5003767;28;20092;-51
2023/09/18 10:11:03;;;;;;;11.18;8.63;;;;;;;;;;4980433;28;20045;-52
2023/09/18 10:13:42;;;;;;;10.65;7.22;;;34.80;97.80;;;;;;5048841;28;20452;-52
2023/09/18 10:16:11;;;;;;;14.27;6.97;;;34.40;97.80;;;;;;5044705;28;20112;-51
2023/09/18 10:18:52;;;;;;;8.07;6.90;;;34.40;96.70;;;;;;5046232;28;20033;-52
2023/09/18 10:21:20;;;;;;;9.20;6.38;;;;;;;;;;5046684;28;20099;-51
2023/09/18 10:24:08;;;;;;;11.50;9.30;;;35.00;95.50;;;;;;5049998;28;20472;-52
2023/09/18 10:26:40;;;;;;;10.25;7.85;;;33.90;95.70;;;;;;5044811;28;20044;-52
2023/09/18 10:29:08;;;;;;;9.65;8.00;;;;;;;;;;5047443;28;20436;-52
2023/09/18 10:31:37;;;;;;;7.13;6.40;;;34.00;95.70;;;;;;5011553;28;20051;-52
2023/09/18 10:34:04;;;;;;;9.38;7.10;;;35.00;95.80;;;;;;5048221;28;20056;-52
2023/09/18 10:36:33;;;;;;;8.13;6.82;;;35.00;95.20;;;;;;5048781;28;20056;-52
2023/09/18 10:39:00;;;;;;;8.70;7.03;;;35.50;98.20;;;;;;5046967;28;20036;-52
2023/09/18 10:41:27;;;;;;;9.77;7.53;;;;;;;;;;4991677;28;20049;-52
2023/09/18 10:43:58;;;;;;;6.95;6.25;;;33.90;94.70;;;;;;5012199;28;20057;-52
2023/09/18 10:46:25;;;;;;;8.65;6.63;;;34.20;94.90;;;;;;5012011;28;20044;-51
2023/09/18 10:48:52;;;;;;;7.10;6.38;;;34.20;94.80;;;;;;5023471;28;20030;-52
2023/09/18 10:51:25;;;;;;;10.05;6.93;;;;;;;;;;5043352;28;20044;-52
2023/09/18 10:53:52;;;;;;;7.38;6.22;;;35.40;98.40;;;;;;5048150;28;20570;-53
2023/09/18 10:56:20;;;;;;;8.23;6.13;;;35.20;94.20;;;;;;5048965;28;20072;-52
2023/09/18 10:58:46;;;;;;;7.80;6.35;;;;;;;;;;5043232;28;20036;-52
2023/09/18 11:01:12;;;;;;;9.57;6.40;;;35.50;93.60;;;;;;5045266;28;20037;-52
2023/09/18 11:03:39;;;;;;;7.85;5.72;;;35.40;93.70;;;;;;5049390;28;20419;-51
2023/09/18 11:06:11;;;;;;;10.02;6.22;;;35.30;93.90;;;;;;5046817;28;20030;-51
2023/09/18 11:08:47;;;;;;;10.27;6.38;;;;;;;;;;5027172;28;20110;-51
2023/09/18 11:11:16;;;;;;;6.90;5.28;;;;;;;;;;5040120;28;20030;-51
2023/09/18 11:13:42;;;;;;;7.47;5.57;;;;;;;;;;5041862;28;20028;-52
2023/09/18 11:16:15;;;;;;;6.68;5.82;;;;;;;;;;5044770;28;20040;-51
2023/09/18 11:18:41;;;;;;;6.88;5.80;;;34.90;99.90;;;;;;5049372;28;20057;-52
2023/09/18 11:21:11;;;;;;;9.68;5.68;;;34.90;99.90;;;;;;5043636;28;20035;-51
2023/09/18 11:23:38;;;;;;;14.02;5.97;;;;;;;;;;5045493;28;20041;-51
2023/09/18 11:26:11;;;;;;;5.95;4.93;;;;;;;;;;5045814;28;20428;-52
2023/09/18 11:28:38;;;;;;;6.20;5.60;;;;;;;;;;5040516;28;20025;-52
2023/09/18 11:31:04;;;;;;;7.10;5.03;;;;;;;;;;5041443;28;20032;-52
2023/09/18 11:33:31;;;;;;;7.55;5.55;;;;;;;;;;5044755;28;20503;-55
2023/09/18 11:35:57;;;;;;;7.68;5.45;;;;;;;;;;5012432;28;20030;-52
2023/09/18 11:38:23;;;;;;;7.50;6.45;;;;;;;;;;5004838;28;20096;-53
2023/09/18 11:40:49;;;;;;;6.10;5.50;;;34.80;99.90;;;;;;5006596;28;20080;-53
2023/09/18 11:43:26;;;;;;;7.38;5.80;;;;;;;;;;5004258;28;20057;-52
2023/09/18 11:45:55;;;;;;;9.93;5.70;;;;;;;;;;5005588;28;20485;-52
2023/09/18 11:48:27;;;;;;;7.55;6.35;;;34.30;99.90;;;;;;5000354;28;20033;-53
2023/09/18 11:50:54;;;;;;;6.88;5.72;;;34.90;99.90;;;;;;5005642;28;20112;-53
2023/09/18 11:53:21;;;;;;;6.75;5.35;;;;;;;;;;5000397;28;20034;-53
2023/09/18 11:55:47;;;;;;;8.27;6.00;;;;;;;;;;5008837;28;21066;-52
2023/09/18 11:58:14;;;;;;;11.07;5.00;;;;;;;;;;5006110;28;20090;-53
2023/09/18 12:00:46;;;;;;;10.05;5.30;;;35.10;99.90;;;;;;5000107;28;20117;-53
2023/09/18 12:03:17;;;;;;;6.97;4.68;;;34.60;98.60;;;;;;5002805;28;20038;-54
2023/09/18 12:05:44;;;;;;;;;;;35.10;99.40;;;;;;5002615;28;20030;-53
2023/09/18 12:08:11;;;;;;;10.57;6.13;;;34.70;99.90;;;;;;5024981;28;19916;-53
2023/09/18 12:10:37;;;;;;;6.45;5.00;;;34.80;99.90;;;;;;5049144;28;20029;-53
2023/09/18 12:13:08;;;;;;;7.60;5.03;;;;;;;;;;5030902;28;20632;-52
2023/09/18 12:15:33;;;;;;;6.18;4.82;;;35.10;99.00;;;;;;5046659;28;20468;-53
2023/09/18 12:18:09;;;;;;;6.97;5.05;;;34.90;98.30;;;;;;5046301;28;20038;-53
2023/09/18 12:20:36;;;;;;;9.48;5.53;;;;;;;;;;5043374;28;20078;-53
2023/09/18 12:23:02;;;;;;;6.78;4.80;;;;;;;;;;5044379;28;20532;-52
2023/09/18 12:25:28;;;;;;;12.13;6.95;;;;;;;;;;5045700;28;20078;-53
2023/09/18 12:27:55;;;;;;;9.05;5.28;;;;;;;;;;5047535;28;20081;-53
2023/09/18 12:30:22;;;;;;;7.82;4.65;;;35.30;91.40;;;;;;5044480;28;20048;-52
2023/09/18 12:32:49;;;;;;;11.07;6.13;;;36.00;91.60;;;;;;5046960;28;20464;-53
2023/09/18 12:35:18;;;;;;;10.75;6.68;;;36.20;91.70;;;;;;5036696;28;20037;-54
2023/09/18 12:37:44;;;;;;;7.57;5.28;;;36.00;93.10;;;;;;5040101;28;20041;-52
2023/09/18 12:40:25;;;;;;;8.73;5.22;;;35.90;91.00;;;;;;4979958;28;20033;-53
2023/09/18 12:42:53;;;;;;;8.77;6.15;;;36.00;90.80;;;;;;4977582;28;20058;-53
2023/09/18 12:45:19;;;;;;;8.85;5.22;;;36.30;90.90;;;;;;5010489;28;20057;-52
2023/09/18 12:47:45;;;;;;;7.28;4.55;;;36.40;91.60;;;;;;5012769;28;20030;-52
2023/09/18 12:50:14;;;;;;;9.52;4.30;;;35.80;91.00;;;;;;5011041;28;20079;-53
2023/09/18 12:52:41;;;;;;;16.05;7.28;;;35.40;98.90;;;;;;5011529;28;20069;-52
2023/09/18 12:55:07;;;;;;;12.23;6.20;;;;;;;;;;5009700;28;20050;-53
2023/09/18 12:57:34;;;;;;;11.90;5.68;;;;;;;;;;4980815;28;20509;-52
2023/09/18 13:00:02;;;;;;;8.88;4.65;;;36.00;93.30;;;;;;5017311;28;20066;-54
2023/09/18 13:02:28;;;;;;;8.57;5.50;;;36.00;95.70;;;;;;5009576;28;20042;-53
2023/09/18 13:04:56;;;;;;;6.15;5.00;;;;;;;;;;5013447;28;21030;-52
2023/09/18 13:07:22;;;;;;;9.88;5.03;;;;;;;;;;5014879;28;20038;-53
2023/09/18 13:10:02;;;;;;;7.00;5.18;;;36.20;92.00;;;;;;5013158;28;20124;-55
2023/09/18 13:12:47;;;;;;;6.35;5.25;;;35.90;93.40;;;;;;5003819;28;20045;-55
2023/09/18 13:15:13;;;;;;;11.60;5.18;;;36.30;94.40;;;;;;5010018;28;20392;-54
2023/09/18 13:17:45;;;;;;;8.25;5.03;;;36.20;94.10;;;;;;5049222;28;20037;-53
2023/09/18 13:20:20;;;;;;;11.82;5.05;;;;;;;;;;5051505;28;20029;-54
2023/09/18 13:22:49;;;;;;;8.15;5.20;;;;;;;;;;5049925;28;20163;-52
2023/09/18 13:25:26;;;;;;;8.38;4.82;;;;;;;;;;5052134;28;20107;-52
2023/09/18 13:27:53;;;;;;;6.50;4.32;;;35.80;99.90;;;;;;5054308;28;20036;-54
2023/09/18 13:30:21;;;;;;;10.02;4.97;;;;;;;;;;5045435;28;20068;-55
2023/09/18 13:32:48;;;;;;;7.03;5.00;;;35.40;99.90;;;;;;5050997;28;20063;-53
2023/09/18 13:35:15;;;;;;;5.70;4.80;;;;;;;;;;5056624;28;20020;-53
2023/09/18 13:37:41;;;;;;;10.30;6.40;;;;;;;;;;5047486;28;20025;-54
2023/09/18 13:40:08;;;;;;;7.97;5.47;;;36.00;95.20;;;;;;5050256;28;20480;-53
2023/09/18 13:42:37;;;;;;;10.35;7.07;;;;;;;;;;5052833;28;20044;-51
2023/09/18 13:45:07;;;;;;;9.35;6.50;;;35.90;99.90;;;;;;5049229;28;20025;-52
2023/09/18 13:47:33;;;;;;;8.13;5.78;;;36.10;99.90;;;;;;5046746;28;20029;-53
2023/09/18 13:50:00;;;;;;;11.95;5.13;;;;;;;;;;4994010;28;20033;-53
2023/09/18 13:52:30;;;;;;;8.25;4.75;;;36.30;93.80;;;;;;5047874;28;20028;-53
2023/09/18 13:54:56;;;;;;;7.47;5.15;;;35.40;99.70;;;;;;5047756;28;20022;-53
2023/09/18 13:57:23;;;;;;;8.43;5.20;;;;;;;;;;5011653;28;20381;-53
2023/09/18 13:59:50;;;;;;;8.88;5.22;;;;;;;;;;5050110;28;20722;-52
2023/09/18 14:02:16;;;;;;;7.93;4.82;;;;;;;;;;5051185;28;20049;-54
2023/09/18 14:04:42;;;;;;;5.60;4.85;;;36.50;99.90;;;;;;5050225;28;20464;-54
2023/09/18 14:07:09;;;;;;;7.85;5.93;;;36.50;98.30;;;;;;5048485;28;20103;-53
2023/09/18 14:09:35;;;;;;;8.77;6.38;;;36.10;98.50;;;;;;5033500;28;20037;-53
2023/09/18 14:12:02;;;;;;;11.10;5.78;;;36.00;98.80;;;;;;5054254;28;20032;-54
2023/09/18 14:14:28;;;;;;;8.95;6.10;;;;;;;;;;5049405;28;20048;-55
2023/09/18 14:16:54;;;;;;;8.02;5.63;;;35.50;96.60;;;;;;5045577;28;20186;-52
2023/09/18 14:19:20;;;;;;;9.45;5.65;;;35.60;97.40;;;;;;4995884;28;20463;-52
2023/09/18 14:21:49;;;;;;;7.07;5.78;;;;;;;;;;5000516;28;20175;-52
2023/09/18 14:24:17;;;;;;;8.48;6.32;;;;;;;;;;5047743;28;20044;-51
2023/09/18 14:26:44;;;;;;;13.90;6.70;;;;;;;;;;5049082;28;20040;-52
2023/09/18 14:29:11;;;;;;;11.43;6.90;;;34.20;99.40;;;;;;5032011;28;20435;-53
2023/09/18 14:31:37;;;;;;;10.15;5.82;;;;;;;;;;5052392;28;20021;-52
2023/09/18 14:34:05;;;;;;;7.70;5.78;;;33.70;91.90;;;;;;5048891;28;20691;-52
2023/09/18 14:36:33;;;;;;;13.10;5.97;;;33.80;91.40;;;;;;5052568;28;20037;-53
2023/09/18 14:39:00;;;;;;;8.73;6.13;;;33.90;91.40;;;;;;5042721;28;20021;-52
2023/09/18 14:41:26;;;;;;;11.98;7.75;;;;;;;;;;5016108;28;20037;-53
2023/09/18 14:43:52;;;;;;;11.13;8.15;;;33.30;97.30;;;;;;5047456;28;20116;-52
2023/09/18 14:46:19;;;;;;;8.98;7.85;;;33.20;92.40;;;;;;5053439;28;20100;-52
2023/09/18 14:48:46;;;;;;;14.02;8.60;;;33.10;92.60;;;;;;5044699;28;20057;-53
2023/09/18 14:51:12;;;;;;;12.18;7.10;;;;;;;;;;5041280;28;20112;-55
2023/09/18 14:53:38;;;;;;;13.40;7.80;;;;;;;;;;5052608;28;20114;-53
2023/09/18 14:56:04;;;;;;;16.50;8.38;;;32.50;99.90;;;;;;5047204;28;20029;-54
2023/09/18 14:58:30;;;;;;;10.50;8.10;;;32.60;99.30;;;;;;5052325;28;20083;-53
2023/09/18 15:00:57;;;;;;;11.38;7.45;;;32.40;93.80;;;;;;5054386;28;20025;-52
2023/09/18 15:03:26;;;;;;;10.20;7.55;;;32.40;99.70;;;;;;5048252;28;20037;-53
2023/09/18 15:05:53;;;;;;;13.93;8.10;;;32.20;99.90;;;;;;5045736;28;20033;-52
2023/09/18 15:08:22;;;;;;;10.70;8.38;;;32.00;94.00;;;;;;5048813;28;20500;-54
2023/09/18 15:10:48;;;;;;;13.82;7.90;;;;;;;;;;5047692;28;20124;-54
2023/09/18 15:13:14;;;;;;;12.90;7.38;;;;;;;;;;4998999;28;20111;-54
2023/09/18 15:15:41;;;;;;;9.45;7.35;;;31.60;93.80;;;;;;5049156;28;20115;-54
2023/09/18 15:18:08;;;;;;;9.77;7.18;;;31.40;94.20;;;;;;5049643;28;20025;-54
2023/09/18 15:20:34;;;;;;;9.77;7.38;;;31.20;94.20;;;;;;5050927;28;20026;-54
2023/09/18 15:23:00;;;;;;;11.63;7.88;;;;;;;;;;5016643;28;20095;-54
2023/09/18 15:25:26;;;;;;;10.35;8.18;;;31.00;99.90;;;;;;5048565;28;20067;-54
2023/09/18 15:27:52;;;;;;;10.63;7.82;;;30.90;99.90;;;;;;4982624;28;20087;-54
2023/09/18 15:30:18;;;;;;;11.20;8.75;;;31.10;99.90;;;;;;5050794;28;20130;-54
2023/09/18 15:32:54;;;;;;;12.52;8.02;;;;;;;;;;5043731;28;20450;-54
2023/09/18 15:35:20;;;;;;;10.98;8.73;;;;;;;;;;5045494;28;20111;-53
2023/09/18 15:37:46;;;;;;;11.27;10.07;;;30.70;99.90;;;;;;5043867;28;20029;-52
2023/09/18 15:40:14;;;;;;;9.23;8.02;;;;;;;;;;5013764;28;20044;-53
2023/09/18 15:42:40;;;;;;;12.30;8.65;;;30.40;94.70;;;;;;5054077;28;20045;-51
2023/09/18 15:45:10;;;;;;;10.32;8.27;;;30.40;95.00;;;;;;5039432;28;20032;-54
2023/09/18 15:47:40;;;;;;;10.70;7.97;;;30.30;95.00;;;;;;4981276;28;20092;-54
2023/09/18 15:50:06;;;;;;;10.10;8.82;;;30.20;98.60;;;;;;5001103;28;20517;-53
2023/09/18 15:52:33;;;;;;;11.52;8.82;;;;;;;;;;4915555;28;20521;-53
2023/09/18 15:54:59;;;;;;;9.52;8.15;;;30.10;99.90;;;;;;4997392;28;20561;-53
2023/09/18 15:57:28;;;;;;;11.27;7.88;;;29.90;95.40;;;;;;5002553;28;20037;-54
2023/09/18 15:59:55;;;;;;;11.68;8.68;;;29.80;95.50;;;;;;5001366;28;20050;-53
2023/09/18 16:02:21;;;;;;;10.65;9.40;;;29.70;95.60;;;;;;5002988;28;20124;-54
2023/09/18 16:04:47;;;;;;;13.70;9.73;;;29.60;95.80;;;;;;4975466;28;20120;-53
2023/09/18 16:07:13;;;;;;;8.90;7.90;;;29.40;96.00;;;;;;5000455;28;20085;-53
2023/09/18 16:09:39;;;;;;;10.98;8.57;;;29.30;96.10;;;;;;4997763;28;20490;-54
2023/09/18 16:12:06;;;;;;;12.07;8.90;;;29.10;96.20;;;;;;4997152;28;20093;-53
2023/09/18 16:14:35;;;;;;;10.13;8.15;;;29.00;96.70;;;;;;5003487;28;20026;-54
2023/09/18 16:17:03;;;;;;;9.32;8.38;;;28.80;96.60;;;;;;5006893;28;20041;-54
2023/09/18 16:19:30;;;;;;;10.38;8.10;;;28.70;96.80;;;;;;4967419;28;20093;-54
2023/09/18 16:21:57;;;;;;;10.18;8.63;;;28.60;97.00;;;;;;4996855;28;20026;-53
2023/09/18 16:24:24;;;;;;;10.95;8.65;;;28.60;97.00;;;;;;5019117;28;20045;-55
2023/09/18 16:26:50;;;;;;;12.23;9.85;;;28.60;97.20;;;;;;5045759;28;20087;-54
2023/09/18 16:29:16;;;;;;;10.20;8.88;;;;;;;;;;5040279;28;20029;-54
2023/09/18 16:31:42;;;;;;;10.18;9.00;;;;;;;;;;5042980;28;20033;-55
2023/09/18 16:34:08;;;;;;;10.95;9.38;;;;;;;;;;5039472;28;20070;-54
2023/09/18 16:36:34;;;;;;;10.55;9.43;;;28.30;99.90;;;;;;5045535;28;20141;-53
2023/09/18 16:39:00;;;;;;;11.77;9.57;;;;;;;;;;5047847;28;20032;-54
2023/09/18 16:41:27;;;;;;;14.13;10.38;;;28.10;99.90;;;;;;5029955;28;20041;-53
2023/09/18 16:43:53;;;;;;;13.02;11.02;;;27.90;98.10;;;;;;5043818;28;20049;-53
2023/09/18 16:46:19;;;;;;;11.23;9.80;;;27.80;98.20;;;;;;5038353;28;20033;-53
2023/09/18 16:48:45;;;;;;;10.63;9.15;;;;;;;;;;5043905;28;20036;-53
2023/09/18 16:51:11;;;;;;;13.00;9.73;;;;;;;;;;5039110;28;20048;-54
2023/09/18 16:53:38;;;;;;;9.68;8.55;;;;;;;;;;5046706;28;20025;-53
2023/09/18 16:56:04;;;;;;;12.63;9.82;;;27.30;98.50;;;;;;5040938;28;20429;-54
2023/09/18 16:58:30;;;;;;;15.40;10.07;;;;;;;;;;5024242;28;20040;-53
2023/09/18 17:00:56;;;;;;;12.52;9.48;;;;;;;;;;5046964;28;20103;-53
2023/09/18 17:03:22;;;;;;;11.90;8.45;;;27.00;98.80;;;;;;5046808;28;20033;-54
2023/09/18 17:05:48;;;;;;;9.68;8.68;;;27.10;99.90;;;;;;5051684;28;20035;-53
2023/09/18 17:08:14;;;;;;;10.45;9.45;;;27.10;99.90;;;;;;5042460;28;20415;-56
2023/09/18 17:10:42;;;;;;;10.57;9.45;;;27.10;99.90;;;;;;5001051;28;20042;-53
2023/09/18 17:13:11;;;;;;;8.85;7.80;;;;;;;;;;5040855;28;20041;-54
2023/09/18 17:15:38;;;;;;;12.73;9.35;;;26.70;99.20;;;;;;5008612;28;20076;-54
2023/09/18 17:18:04;;;;;;;16.08;8.70;;;26.60;99.60;;;;;;5048187;28;20036;-54
2023/09/18 17:20:30;;;;;;;10.00;7.88;;;26.60;99.70;;;;;;5042924;28;20029;-54
2023/09/18 17:22:56;;;;;;;10.57;8.93;;;26.60;99.70;;;;;;5046986;28;20036;-53
2023/09/18 17:25:22;;;;;;;11.20;9.02;;;26.60;99.70;;;;;;5035166;28;20057;-54
2023/09/18 17:27:48;;;;;;;10.90;7.80;;;26.60;99.70;;;;;;5046301;28;20037;-53
2023/09/18 17:30:17;;;;;;;11.75;9.07;;;26.70;99.90;;;;;;5045632;28;20056;-53
2023/09/18 17:32:43;;;;;;;11.20;7.68;;;26.60;99.80;;;;;;5037096;28;20350;-54
2023/09/18 17:35:09;;;;;;;11.00;8.35;;;;;;;;;;5046667;28;20021;-54
2023/09/18 17:37:35;;;;;;;12.35;8.35;;;26.40;99.80;;;;;;5025619;28;20045;-53
2023/09/18 17:40:04;;;;;;;9.65;7.93;;;26.30;99.90;;;;;;5005311;28;20038;-54
2023/09/18 17:42:30;;;;;;;11.52;8.00;;;26.20;99.90;;;;;;5049112;28;20045;-53
2023/09/18 17:44:56;;;;;;;12.38;7.88;;;26.30;99.90;;;;;;5041255;28;20522;-54
2023/09/18 17:47:22;;;;;;;10.25;7.40;;;;;;;;;;5052196;28;20073;-54
2023/09/18 17:49:48;;;;;;;10.60;7.25;;;26.10;99.90;;;;;;5042269;28;20026;-52
2023/09/18 17:52:13;;;;;;;11.63;8.02;;;26.10;99.90;;;;;;4996859;28;20025;-52
2023/09/18 17:54:39;;;;;;;8.43;6.93;;;;;;;;;;5002099;28;20037;-52
2023/09/18 17:57:06;;;;;;;11.52;7.68;;;26.10;99.90;;;;;;5043104;28;20036;-52
2023/09/18 17:59:32;;;;;;;10.95;7.32;;;26.00;99.90;;;;;;5049583;28;20029;-52
2023/09/18 18:01:58;;;;;;;9.88;7.90;;;25.90;99.90;;;;;;5045745;28;20029;-53
2023/09/18 18:04:24;;;;;;;11.27;7.90;;;25.90;99.90;;;;;;5045857;28;20045;-53
2023/09/18 18:06:50;;;;;;;8.93;7.25;;;25.80;99.90;;;;;;5046831;28;20029;-52
2023/09/18 18:09:19;;;;;;;8.85;7.28;;;25.80;99.90;;;;;;5017830;28;20552;-53
2023/09/18 18:11:45;;;;;;;11.73;9.63;;;25.80;99.90;;;;;;5032053;28;20098;-52
2023/09/18 18:14:13;;;;;;;12.27;7.57;;;25.60;99.90;;;;;;5049297;28;20048;-52
2023/09/18 18:16:39;;;;;;;10.02;8.75;;;25.60;99.90;;;;;;5050420;28;20071;-52
2023/09/18 18:19:05;;;;;;;9.63;7.65;;;25.70;99.90;;;;;;5046417;28;20473;-53
2023/09/18 18:21:33;;;;;;;8.68;6.85;;;25.60;99.90;;;;;;5046073;28;20021;-53
2023/09/18 18:23:59;;;;;;;10.02;7.47;;;25.50;99.90;;;;;;5040656;28;20446;-54
2023/09/18 18:26:27;;;;;;;10.80;7.35;;;25.50;99.90;;;;;;5044321;28;20025;-52
2023/09/18 18:28:54;;;;;;;7.35;6.13;;;25.40;99.90;;;;;;5051414;28;20087;-53
2023/09/18 18:31:27;;;;;;;9.52;6.75;;;25.40;99.90;;;;;;5045702;28;20550;-53
2023/09/18 18:33:53;;;;;;;14.48;8.05;;;25.40;99.90;;;;;;5047306;28;20040;-52
2023/09/18 18:36:19;;;;;;;8.98;6.70;;;25.40;99.90;;;;;;5048600;28;20033;-53
2023/09/18 18:38:45;;;;;;;11.30;7.60;;;25.30;99.90;;;;;;5047019;28;20033;-53
2023/09/18 18:41:10;;;;;;;14.45;8.35;;;25.30;99.90;;;;;;5038876;28;20064;-52
2023/09/18 18:43:38;;;;;;;12.40;7.82;;;25.30;99.90;;;;;;5048747;28;20040;-53
2023/09/18 18:46:05;;;;;;;9.30;7.50;;;25.30;99.90;;;;;;5030111;28;20465;-53
2023/09/18 18:48:32;;;;;;;8.80;7.88;;;25.30;99.90;;;;;;4999647;28;20033;-53
2023/09/18 18:51:10;;;;;;;9.85;6.85;;;25.40;99.90;;;;;;5050300;28;20458;-53
2023/09/18 18:53:37;;;;;;;8.95;7.22;;;25.30;99.90;;;;;;5039192;28;20038;-52
2023/09/18 18:56:03;;;;;;;10.90;7.72;;;25.30;99.90;;;;;;4994627;28;20543;-53
2023/09/18 18:58:28;;;;;;;9.88;7.85;;;25.20;99.90;;;;;;5041507;28;20079;-52
2023/09/18 19:01:04;;;;;;;14.30;7.45;;;25.10;99.90;;;;;;5047819;28;20028;-52
2023/09/18 19:03:31;;;;;;;10.23;7.72;;;25.10;99.90;;;;;;5051294;28;20451;-53
2023/09/18 19:06:07;;;;;;;11.13;8.35;;;25.10;99.90;;;;;;5047593;28;20032;-53
2023/09/18 19:08:36;;;;;;;12.95;7.03;;;25.00;99.90;;;;;;5050191;28;20028;-53
2023/09/18 19:11:08;;;;;;;9.77;7.32;;;25.00;99.90;;;;;;5016618;28;20121;-53
2023/09/18 19:13:33;;;;;;;;;;;25.00;99.90;;;;;;5050907;28;20053;-53
2023/09/18 19:15:59;;;;;;;12.30;8.10;;;24.90;99.90;;;;;;5047387;28;19956;-54
2023/09/18 19:18:26;;;;;;;9.88;7.43;;;24.90;99.90;;;;;;5038876;28;20032;-53
2023/09/18 19:20:52;;;;;;;12.40;8.25;;;24.90;99.90;;;;;;5050320;28;20036;-53
2023/09/18 19:23:18;;;;;;;9.57;7.18;;;24.90;99.90;;;;;;5056173;28;20041;-52
2023/09/18 19:25:48;;;;;;;11.95;8.38;;;24.90;99.90;;;;;;5043819;28;20083;-52
2023/09/18 19:28:15;;;;;;;11.15;7.15;;;24.90;99.90;;;;;;5048462;28;20477;-52
2023/09/18 19:30:45;;;;;;;10.02;8.07;;;24.80;99.90;;;;;;5042674;28;20070;-53
2023/09/18 19:33:15;;;;;;;11.07;7.18;;;24.80;99.90;;;;;;5043460;28;20037;-53
2023/09/18 19:35:44;;;;;;;7.22;6.13;;;24.70;99.90;;;;;;5048074;28;20029;-55
2023/09/18 19:38:10;;;;;;;9.07;7.63;;;24.70;99.90;;;;;;5049556;28;20109;-52
2023/09/18 19:40:38;;;;;;;9.15;7.80;;;24.70;99.90;;;;;;5051818;28;20029;-54
2023/09/18 19:43:03;;;;;;;9.75;7.45;;;24.70;99.90;;;;;;5036086;28;20030;-54
2023/09/18 19:45:29;;;;;;;9.63;8.05;;;24.70;99.90;;;;;;5039681;28;20033;-53
2023/09/18 19:47:57;;;;;;;9.20;6.95;;;24.70;99.90;;;;;;5044894;28;20089;-51
2023/09/18 19:50:23;;;;;;;13.15;8.30;;;24.60;99.90;;;;;;5045126;28;20071;-55
2023/09/18 19:52:49;;;;;;;11.55;8.05;;;24.80;99.90;;;;;;5045501;28;20025;-54
2023/09/18 19:55:14;;;;;;;10.82;7.85;;;24.80;99.90;;;;;;5046552;28;20078;-52
2023/09/18 19:57:41;;;;;;;11.73;7.13;;;24.70;99.90;;;;;;5042368;28;20060;-52
2023/09/18 20:00:10;;;;;;;10.43;7.32;;;24.60;99.90;;;;;;5044074;28;20025;-52
2023/09/18 20:02:36;;;;;;;10.45;7.35;;;24.50;99.90;;;;;;5046402;28;20041;-54
2023/09/18 20:05:06;;;;;;;10.43;7.20;;;;;;;;;;5041860;28;20064;-52
2023/09/18 20:07:33;;;;;;;10.88;7.10;;;24.40;99.90;;;;;;4992785;28;20069;-53
2023/09/18 20:09:59;;;;;;;9.60;8.35;;;24.40;99.90;;;;;;5050091;28;20103;-52
2023/09/18 20:12:24;;;;;;;14.80;10.40;;;24.40;99.90;;;;;;5042349;28;20426;-53
2023/09/18 20:14:53;;;;;;;9.02;7.63;;;24.40;99.90;;;;;;5050616;28;20397;-53
2023/09/18 20:17:20;;;;;;;11.25;7.82;;;24.40;99.90;;;;;;4994958;28;20502;-53
2023/09/18 20:19:45;;;;;;;10.60;8.32;;;24.40;99.90;;;;;;5021987;28;20076;-53
2023/09/18 20:22:11;;;;;;;10.35;7.40;;;24.40;99.90;;;;;;5043691;28;20045;-53
2023/09/18 20:24:37;;;;;;;13.90;9.70;;;24.50;99.90;;;;;;5040689;28;20061;-53
2023/09/18 20:27:05;;;;;;;9.93;8.25;;;24.40;99.90;;;;;;4979215;28;20041;-53
2023/09/18 20:29:53;;;;;;;10.52;8.30;;;24.40;99.90;;;;;;5049724;28;20033;-53
2023/09/18 20:32:19;;;;;;;11.23;8.90;;;24.30;99.90;;;;;;5025264;28;20040;-53
2023/09/18 20:34:45;;;;;;;11.48;8.45;;;24.30;99.90;;;;;;5044451;28;20507;-52
2023/09/18 20:37:12;;;;;;;10.90;7.97;;;24.40;99.90;;;;;;5044974;28;20044;-52
2023/09/18 20:39:38;;;;;;;11.75;8.93;;;24.20;99.90;;;;;;5007894;28;20066;-53
2023/09/18 20:42:04;;;;;;;11.43;8.32;;;24.30;99.90;;;;;;5049457;28;20539;-52
2023/09/18 20:44:30;;;;;;;10.18;8.25;;;24.30;99.90;;;;;;5002383;28;20047;-52
2023/09/18 20:46:56;;;;;;;11.07;8.50;;;24.30;99.90;;;;;;5029836;28;20033;-53
2023/09/18 20:49:22;;;;;;;10.65;8.75;;;24.30;99.90;;;;;;5014025;28;20037;-52
2023/09/18 20:51:48;;;;;;;10.18;8.52;;;24.40;99.90;;;;;;5032555;28;20056;-54
2023/09/18 20:54:13;;;;;;;12.20;9.45;;;24.30;99.90;;;;;;5009273;28;20037;-55
2023/09/18 20:56:39;;;;;;;9.75;7.95;;;24.30;99.90;;;;;;5003866;28;20037;-55
2023/09/18 20:59:06;;;;;;;9.15;7.47;;;24.20;99.90;;;;;;5024680;28;20139;-54
2023/09/18 21:01:32;;;;;;;9.77;8.52;;;24.20;99.90;;;;;;5027059;28;20041;-54
2023/09/18 21:03:57;;;;;;;10.13;7.82;;;24.20;99.90;;;;;;5006353;28;20092;-54
2023/09/18 21:06:24;;;;;;;9.57;8.38;;;24.00;99.90;;;;;;4987199;28;20046;-54
2023/09/18 21:08:52;;;;;;;8.85;7.78;;;24.00;99.90;;;;;;5003034;28;20034;-55
2023/09/18 21:11:20;;;;;;;9.50;8.38;;;23.90;99.90;;;;;;5000310;28;20104;-55
2023/09/18 21:13:46;;;;;;;12.57;9.43;;;24.00;99.90;;;;;;4987416;28;20145;-55
2023/09/18 21:16:16;;;;;;;11.02;8.43;;;24.00;99.90;;;;;;5001044;28;20047;-54
2023/09/18 21:18:43;;;;;;;10.77;8.02;;;23.90;99.90;;;;;;5007425;28;20092;-55
2023/09/18 21:21:09;;;;;;;9.25;8.27;;;24.00;99.90;;;;;;5006229;28;20026;-54
2023/09/18 21:23:35;;;;;;;13.07;9.48;;;23.90;99.90;;;;;;5005090;28;20481;-54
2023/09/18 21:26:00;;;;;;;10.52;8.88;;;23.90;99.90;;;;;;5009956;28;20523;-55
2023/09/18 21:28:26;;;;;;;11.70;9.35;;;24.00;99.90;;;;;;5043142;28;20072;-55